sensor_id;sensor_type;location;lat;lon;timestamp;temperature;humidity
47310;DHT22;33046;52.270;6.832;2023-04-25T00:00:39;10.00;99.90
47310;DHT22;33046;52.270;6.832;2023-04-25T00:02:45;10.00;99.90
47310;DHT22;33046;52.270;6.832;2023-04-25T00:04:52;10.00;99.90
47310;DHT22;33046;52.270;6.832;2023-04-25T00:06:59;10.00;99.90
47310;DHT22;33046;52.270;6.832;2023-04-25T00:09:06;10.00;99.90
47310;DHT22;33046;52.270;6.832;2023-04-25T00:11:13;10.00;99.90
47310;DHT22;33046;52.270;6.832;2023-04-25T00:13:20;10.00;99.90
47310;DHT22;33046;52.270;6.832;2023-04-25T00:15:28;10.00;99.90
47310;DHT22;33046;52.270;6.832;2023-04-25T00:17:35;10.00;99.90
47310;DHT22;33046;52.270;6.832;2023-04-25T00:19:42;9.90;99.90
47310;DHT22;33046;52.270;6.832;2023-04-25T00:21:48;9.90;99.90
47310;DHT22;33046;52.270;6.832;2023-04-25T00:23:56;9.90;99.90
47310;DHT22;33046;52.270;6.832;2023-04-25T00:26:03;9.90;99.90
47310;DHT22;33046;52.270;6.832;2023-04-25T00:28:10;9.90;99.90
47310;DHT22;33046;52.270;6.832;2023-04-25T00:30:16;9.90;99.90
47310;DHT22;33046;52.270;6.832;2023-04-25T00:32:25;9.90;99.90
47310;DHT22;33046;52.270;6.832;2023-04-25T00:34:31;9.90;99.90
47310;DHT22;33046;52.270;6.832;2023-04-25T00:36:38;9.90;99.90
47310;DHT22;33046;52.270;6.832;2023-04-25T00:38:45;9.90;99.90
47310;DHT22;33046;52.270;6.832;2023-04-25T00:40:52;9.90;99.90
47310;DHT22;33046;52.270;6.832;2023-04-25T00:42:59;9.80;99.90
47310;DHT22;33046;52.270;6.832;2023-04-25T00:45:07;9.90;99.90
47310;DHT22;33046;52.270;6.832;2023-04-25T00:47:16;9.90;99.90
47310;DHT22;33046;52.270;6.832;2023-04-25T00:49:24;9.90;99.90
47310;DHT22;33046;52.270;6.832;2023-04-25T00:51:32;9.80;99.90
47310;DHT22;33046;52.270;6.832;2023-04-25T00:53:40;9.90;99.90
47310;DHT22;33046;52.270;6.832;2023-04-25T00:55:47;9.80;99.90
47310;DHT22;33046;52.270;6.832;2023-04-25T00:57:53;9.80;99.90
47310;DHT22;33046;52.270;6.832;2023-04-25T01:00:01;9.80;99.90
47310;DHT22;33046;52.270;6.832;2023-04-25T01:02:08;9.80;99.90
47310;DHT22;33046;52.270;6.832;2023-04-25T01:04:15;9.80;99.90
47310;DHT22;33046;52.270;6.832;2023-04-25T01:06:23;9.80;99.90
47310;DHT22;33046;52.270;6.832;2023-04-25T01:08:30;9.70;99.90
47310;DHT22;33046;52.270;6.832;2023-04-25T01:10:37;9.70;99.90
47310;DHT22;33046;52.270;6.832;2023-04-25T01:12:44;9.80;99.90
47310;DHT22;33046;52.270;6.832;2023-04-25T01:14:51;9.80;99.90
47310;DHT22;33046;52.270;6.832;2023-04-25T01:16:59;9.70;99.90
47310;DHT22;33046;52.270;6.832;2023-04-25T01:19:09;9.70;99.90
47310;DHT22;33046;52.270;6.832;2023-04-25T01:21:17;9.70;99.90
47310;DHT22;33046;52.270;6.832;2023-04-25T01:23:26;9.60;99.90
47310;DHT22;33046;52.270;6.832;2023-04-25T01:25:33;9.60;99.90
47310;DHT22;33046;52.270;6.832;2023-04-25T01:27:41;9.60;99.90
47310;DHT22;33046;52.270;6.832;2023-04-25T01:29:47;9.60;99.90
47310;DHT22;33046;52.270;6.832;2023-04-25T01:31:55;9.50;99.90
47310;DHT22;33046;52.270;6.832;2023-04-25T01:34:02;9.50;99.90
47310;DHT22;33046;52.270;6.832;2023-04-25T01:36:09;9.50;99.90
47310;DHT22;33046;52.270;6.832;2023-04-25T01:38:17;9.60;99.90
47310;DHT22;33046;52.270;6.832;2023-04-25T01:40:24;9.50;99.90
47310;DHT22;33046;52.270;6.832;2023-04-25T01:42:31;9.50;99.90
47310;DHT22;33046;52.270;6.832;2023-04-25T01:44:38;9.60;99.90
47310;DHT22;33046;52.270;6.832;2023-04-25T01:46:44;9.50;99.90
47310;DHT22;33046;52.270;6.832;2023-04-25T01:48:51;9.50;99.90
47310;DHT22;33046;52.270;6.832;2023-04-25T01:50:58;9.50;99.90
47310;DHT22;33046;52.270;6.832;2023-04-25T01:53:05;9.50;99.90
47310;DHT22;33046;52.270;6.832;2023-04-25T01:55:13;9.50;99.90
47310;DHT22;33046;52.270;6.832;2023-04-25T01:57:37;9.50;99.90
47310;DHT22;33046;52.270;6.832;2023-04-25T01:59:45;9.50;99.90
47310;DHT22;33046;52.270;6.832;2023-04-25T02:02:00;9.50;99.90
47310;DHT22;33046;52.270;6.832;2023-04-25T02:04:10;9.50;99.90
47310;DHT22;33046;52.270;6.832;2023-04-25T02:06:19;9.50;99.90
47310;DHT22;33046;52.270;6.832;2023-04-25T02:08:27;9.50;99.90
47310;DHT22;33046;52.270;6.832;2023-04-25T02:10:36;9.40;99.90
47310;DHT22;33046;52.270;6.832;2023-04-25T02:13:03;9.40;99.90
47310;DHT22;33046;52.270;6.832;2023-04-25T02:15:42;9.40;99.90
47310;DHT22;33046;52.270;6.832;2023-04-25T02:17:54;9.40;99.90
47310;DHT22;33046;52.270;6.832;2023-04-25T02:20:01;9.40;99.90
47310;DHT22;33046;52.270;6.832;2023-04-25T02:22:08;9.40;99.90
47310;DHT22;33046;52.270;6.832;2023-04-25T02:24:15;9.30;99.90
47310;DHT22;33046;52.270;6.832;2023-04-25T02:26:23;9.30;99.90
47310;DHT22;33046;52.270;6.832;2023-04-25T02:28:30;9.30;99.90
47310;DHT22;33046;52.270;6.832;2023-04-25T02:30:37;9.30;99.90
47310;DHT22;33046;52.270;6.832;2023-04-25T02:32:44;9.30;99.90
47310;DHT22;33046;52.270;6.832;2023-04-25T02:34:51;9.30;99.90
47310;DHT22;33046;52.270;6.832;2023-04-25T02:36:59;9.30;99.90
47310;DHT22;33046;52.270;6.832;2023-04-25T02:39:06;9.30;99.90
47310;DHT22;33046;52.270;6.832;2023-04-25T02:41:13;9.30;99.90
47310;DHT22;33046;52.270;6.832;2023-04-25T02:43:21;9.30;99.90
47310;DHT22;33046;52.270;6.832;2023-04-25T02:45:31;9.30;99.90
47310;DHT22;33046;52.270;6.832;2023-04-25T02:47:38;9.30;99.90
47310;DHT22;33046;52.270;6.832;2023-04-25T02:49:45;9.30;99.90
47310;DHT22;33046;52.270;6.832;2023-04-25T02:51:52;9.20;99.90
47310;DHT22;33046;52.270;6.832;2023-04-25T02:53:59;9.10;99.90
47310;DHT22;33046;52.270;6.832;2023-04-25T02:56:06;9.10;99.90
47310;DHT22;33046;52.270;6.832;2023-04-25T02:58:13;9.20;99.90
47310;DHT22;33046;52.270;6.832;2023-04-25T03:00:27;9.10;99.90
47310;DHT22;33046;52.270;6.832;2023-04-25T03:02:34;9.10;99.90
47310;DHT22;33046;52.270;6.832;2023-04-25T03:04:41;9.10;99.90
47310;DHT22;33046;52.270;6.832;2023-04-25T03:06:48;9.10;99.90
47310;DHT22;33046;52.270;6.832;2023-04-25T03:08:55;9.00;99.90
47310;DHT22;33046;52.270;6.832;2023-04-25T03:11:02;9.00;99.90
47310;DHT22;33046;52.270;6.832;2023-04-25T03:13:08;9.00;99.90
47310;DHT22;33046;52.270;6.832;2023-04-25T03:15:16;9.00;99.90
47310;DHT22;33046;52.270;6.832;2023-04-25T03:17:24;9.00;99.90
47310;DHT22;33046;52.270;6.832;2023-04-25T03:19:31;9.10;99.90
47310;DHT22;33046;52.270;6.832;2023-04-25T03:21:38;9.10;99.90
47310;DHT22;33046;52.270;6.832;2023-04-25T03:23:44;9.00;99.90
47310;DHT22;33046;52.270;6.832;2023-04-25T03:25:51;9.00;99.90
47310;DHT22;33046;52.270;6.832;2023-04-25T03:27:58;9.00;99.90
47310;DHT22;33046;52.270;6.832;2023-04-25T03:30:06;9.00;99.90
47310;DHT22;33046;52.270;6.832;2023-04-25T03:32:15;9.10;99.90
47310;DHT22;33046;52.270;6.832;2023-04-25T03:34:23;9.10;99.90
47310;DHT22;33046;52.270;6.832;2023-04-25T03:36:30;9.10;99.90
47310;DHT22;33046;52.270;6.832;2023-04-25T03:38:36;9.10;99.90
47310;DHT22;33046;52.270;6.832;2023-04-25T03:40:45;9.10;99.90
47310;DHT22;33046;52.270;6.832;2023-04-25T03:43:11;9.10;99.90
47310;DHT22;33046;52.270;6.832;2023-04-25T03:45:22;9.10;99.90
47310;DHT22;33046;52.270;6.832;2023-04-25T03:47:29;9.10;99.90
47310;DHT22;33046;52.270;6.832;2023-04-25T03:49:38;9.10;99.90
47310;DHT22;33046;52.270;6.832;2023-04-25T03:51:46;9.10;99.90
47310;DHT22;33046;52.270;6.832;2023-04-25T03:53:53;9.10;99.90
47310;DHT22;33046;52.270;6.832;2023-04-25T03:56:19;9.00;99.90
47310;DHT22;33046;52.270;6.832;2023-04-25T03:58:29;9.00;99.90
47310;DHT22;33046;52.270;6.832;2023-04-25T04:00:36;9.00;99.90
47310;DHT22;33046;52.270;6.832;2023-04-25T04:02:43;9.10;99.90
47310;DHT22;33046;52.270;6.832;2023-04-25T04:04:52;9.00;99.90
47310;DHT22;33046;52.270;6.832;2023-04-25T04:07:00;9.00;99.90
47310;DHT22;33046;52.270;6.832;2023-04-25T04:09:10;9.00;99.90
47310;DHT22;33046;52.270;6.832;2023-04-25T04:11:18;9.00;99.90
47310;DHT22;33046;52.270;6.832;2023-04-25T04:13:25;9.00;99.90
47310;DHT22;33046;52.270;6.832;2023-04-25T04:15:32;9.00;99.90
47310;DHT22;33046;52.270;6.832;2023-04-25T04:17:39;9.00;99.90
47310;DHT22;33046;52.270;6.832;2023-04-25T04:19:47;8.90;99.90
47310;DHT22;33046;52.270;6.832;2023-04-25T04:21:59;8.90;99.90
47310;DHT22;33046;52.270;6.832;2023-04-25T04:24:06;9.00;99.90
47310;DHT22;33046;52.270;6.832;2023-04-25T04:26:26;9.00;99.90
47310;DHT22;33046;52.270;6.832;2023-04-25T04:28:43;9.00;99.90
47310;DHT22;33046;52.270;6.832;2023-04-25T04:31:13;9.00;99.90
47310;DHT22;33046;52.270;6.832;2023-04-25T04:33:20;9.00;99.90
47310;DHT22;33046;52.270;6.832;2023-04-25T04:35:33;9.00;99.90
47310;DHT22;33046;52.270;6.832;2023-04-25T04:37:41;9.00;99.90
47310;DHT22;33046;52.270;6.832;2023-04-25T04:39:50;9.00;99.90
47310;DHT22;33046;52.270;6.832;2023-04-25T04:42:09;9.00;99.90
47310;DHT22;33046;52.270;6.832;2023-04-25T04:44:24;8.90;99.90
47310;DHT22;33046;52.270;6.832;2023-04-25T04:46:54;8.90;99.90
47310;DHT22;33046;52.270;6.832;2023-04-25T04:49:13;8.90;99.90
47310;DHT22;33046;52.270;6.832;2023-04-25T04:51:43;8.90;99.90
47310;DHT22;33046;52.270;6.832;2023-04-25T04:54:10;9.00;99.90
47310;DHT22;33046;52.270;6.832;2023-04-25T04:56:35;9.00;99.90
47310;DHT22;33046;52.270;6.832;2023-04-25T04:58:56;9.00;99.90
47310;DHT22;33046;52.270;6.832;2023-04-25T05:01:09;9.00;99.90
47310;DHT22;33046;52.270;6.832;2023-04-25T05:03:54;9.00;99.90
47310;DHT22;33046;52.270;6.832;2023-04-25T05:06:26;9.00;99.90
47310;DHT22;33046;52.270;6.832;2023-04-25T05:08:52;9.00;99.90
47310;DHT22;33046;52.270;6.832;2023-04-25T05:11:32;9.00;99.90
47310;DHT22;33046;52.270;6.832;2023-04-25T05:14:01;9.00;99.90
47310;DHT22;33046;52.270;6.832;2023-04-25T05:16:28;9.00;99.90
47310;DHT22;33046;52.270;6.832;2023-04-25T05:18:50;9.10;99.90
47310;DHT22;33046;52.270;6.832;2023-04-25T05:21:09;9.00;99.90
47310;DHT22;33046;52.270;6.832;2023-04-25T05:23:33;9.00;99.90
47310;DHT22;33046;52.270;6.832;2023-04-25T05:26:09;9.00;99.90
47310;DHT22;33046;52.270;6.832;2023-04-25T05:28:25;9.10;99.90
47310;DHT22;33046;52.270;6.832;2023-04-25T05:30:39;9.10;99.90
47310;DHT22;33046;52.270;6.832;2023-04-25T05:32:50;9.10;99.90
47310;DHT22;33046;52.270;6.832;2023-04-25T05:34:57;9.20;99.90
47310;DHT22;33046;52.270;6.832;2023-04-25T05:37:07;9.20;99.90
47310;DHT22;33046;52.270;6.832;2023-04-25T05:39:25;9.30;99.90
47310;DHT22;33046;52.270;6.832;2023-04-25T05:41:50;9.30;99.90
47310;DHT22;33046;52.270;6.832;2023-04-25T05:44:17;9.30;99.90
47310;DHT22;33046;52.270;6.832;2023-04-25T05:46:44;9.20;99.90
47310;DHT22;33046;52.270;6.832;2023-04-25T05:48:54;9.30;99.90
47310;DHT22;33046;52.270;6.832;2023-04-25T05:51:21;9.30;99.90
47310;DHT22;33046;52.270;6.832;2023-04-25T05:53:39;9.30;99.90
47310;DHT22;33046;52.270;6.832;2023-04-25T05:55:46;9.30;99.90
47310;DHT22;33046;52.270;6.832;2023-04-25T05:58:00;9.40;99.90
47310;DHT22;33046;52.270;6.832;2023-04-25T06:00:12;9.40;99.90
47310;DHT22;33046;52.270;6.832;2023-04-25T06:02:19;9.40;99.90
47310;DHT22;33046;52.270;6.832;2023-04-25T06:04:27;9.50;99.90
47310;DHT22;33046;52.270;6.832;2023-04-25T06:06:34;9.50;99.90
47310;DHT22;33046;52.270;6.832;2023-04-25T06:08:41;9.50;99.90
47310;DHT22;33046;52.270;6.832;2023-04-25T06:10:50;9.60;99.90
47310;DHT22;33046;52.270;6.832;2023-04-25T06:12:58;9.60;99.90
47310;DHT22;33046;52.270;6.832;2023-04-25T06:15:06;9.70;99.90
47310;DHT22;33046;52.270;6.832;2023-04-25T06:17:20;9.80;99.70
47310;DHT22;33046;52.270;6.832;2023-04-25T06:19:29;9.80;99.60
47310;DHT22;33046;52.270;6.832;2023-04-25T06:21:36;9.90;99.40
47310;DHT22;33046;52.270;6.832;2023-04-25T06:23:43;9.90;99.50
47310;DHT22;33046;52.270;6.832;2023-04-25T06:25:52;9.90;99.00
47310;DHT22;33046;52.270;6.832;2023-04-25T06:27:59;10.00;98.80
47310;DHT22;33046;52.270;6.832;2023-04-25T06:30:07;10.00;97.60
47310;DHT22;33046;52.270;6.832;2023-04-25T06:32:14;10.00;97.70
47310;DHT22;33046;52.270;6.832;2023-04-25T06:34:23;10.00;97.60
47310;DHT22;33046;52.270;6.832;2023-04-25T06:36:29;10.10;97.40
47310;DHT22;33046;52.270;6.832;2023-04-25T06:38:43;10.10;97.00
47310;DHT22;33046;52.270;6.832;2023-04-25T06:40:51;10.20;97.10
47310;DHT22;33046;52.270;6.832;2023-04-25T06:42:58;10.10;96.90
47310;DHT22;33046;52.270;6.832;2023-04-25T06:45:16;10.20;97.30
47310;DHT22;33046;52.270;6.832;2023-04-25T06:47:24;10.20;97.10
47310;DHT22;33046;52.270;6.832;2023-04-25T06:49:32;10.20;96.60
47310;DHT22;33046;52.270;6.832;2023-04-25T06:51:40;10.50;96.20
47310;DHT22;33046;52.270;6.832;2023-04-25T06:53:47;10.50;95.70
47310;DHT22;33046;52.270;6.832;2023-04-25T06:56:04;10.40;95.40
47310;DHT22;33046;52.270;6.832;2023-04-25T06:58:23;10.50;95.50
47310;DHT22;33046;52.270;6.832;2023-04-25T07:00:48;10.60;95.60
47310;DHT22;33046;52.270;6.832;2023-04-25T07:02:55;10.80;94.40
47310;DHT22;33046;52.270;6.832;2023-04-25T07:05:04;11.10;93.90
47310;DHT22;33046;52.270;6.832;2023-04-25T07:07:11;11.20;94.10
47310;DHT22;33046;52.270;6.832;2023-04-25T07:09:31;11.30;94.40
47310;DHT22;33046;52.270;6.832;2023-04-25T07:11:38;11.20;93.50
47310;DHT22;33046;52.270;6.832;2023-04-25T07:13:45;11.30;93.10
47310;DHT22;33046;52.270;6.832;2023-04-25T07:15:52;11.30;92.60
47310;DHT22;33046;52.270;6.832;2023-04-25T07:18:00;11.20;92.60
47310;DHT22;33046;52.270;6.832;2023-04-25T07:20:09;11.40;93.10
47310;DHT22;33046;52.270;6.832;2023-04-25T07:22:16;11.50;92.90
47310;DHT22;33046;52.270;6.832;2023-04-25T07:24:23;11.50;92.60
47310;DHT22;33046;52.270;6.832;2023-04-25T07:26:33;11.60;92.80
47310;DHT22;33046;52.270;6.832;2023-04-25T07:28:58;11.70;92.60
47310;DHT22;33046;52.270;6.832;2023-04-25T07:31:05;11.60;91.90
47310;DHT22;33046;52.270;6.832;2023-04-25T07:33:12;11.60;91.70
47310;DHT22;33046;52.270;6.832;2023-04-25T07:35:20;11.60;91.70
47310;DHT22;33046;52.270;6.832;2023-04-25T07:37:27;11.70;91.40
47310;DHT22;33046;52.270;6.832;2023-04-25T07:39:42;11.70;91.20
47310;DHT22;33046;52.270;6.832;2023-04-25T07:41:49;11.60;91.20
47310;DHT22;33046;52.270;6.832;2023-04-25T07:44:03;11.70;91.90
47310;DHT22;33046;52.270;6.832;2023-04-25T07:46:11;11.60;91.30
47310;DHT22;33046;52.270;6.832;2023-04-25T07:48:18;11.50;90.90
47310;DHT22;33046;52.270;6.832;2023-04-25T07:50:28;11.70;90.00
47310;DHT22;33046;52.270;6.832;2023-04-25T07:52:34;11.80;90.40
47310;DHT22;33046;52.270;6.832;2023-04-25T07:54:52;11.80;91.00
47310;DHT22;33046;52.270;6.832;2023-04-25T07:57:05;11.80;89.60
47310;DHT22;33046;52.270;6.832;2023-04-25T07:59:13;11.80;89.20
47310;DHT22;33046;52.270;6.832;2023-04-25T08:01:21;11.90;90.60
47310;DHT22;33046;52.270;6.832;2023-04-25T08:03:41;12.10;90.20
47310;DHT22;33046;52.270;6.832;2023-04-25T08:05:56;12.00;88.40
47310;DHT22;33046;52.270;6.832;2023-04-25T08:08:04;12.00;84.80
47310;DHT22;33046;52.270;6.832;2023-04-25T08:10:11;11.70;85.60
47310;DHT22;33046;52.270;6.832;2023-04-25T08:12:18;11.70;85.40
47310;DHT22;33046;52.270;6.832;2023-04-25T08:14:26;11.70;83.40
47310;DHT22;33046;52.270;6.832;2023-04-25T08:16:33;11.80;83.80
47310;DHT22;33046;52.270;6.832;2023-04-25T08:18:41;11.60;83.20
47310;DHT22;33046;52.270;6.832;2023-04-25T08:20:48;11.90;84.00
47310;DHT22;33046;52.270;6.832;2023-04-25T08:22:57;11.90;85.30
47310;DHT22;33046;52.270;6.832;2023-04-25T08:25:10;12.00;81.60
47310;DHT22;33046;52.270;6.832;2023-04-25T08:27:18;12.10;80.10
47310;DHT22;33046;52.270;6.832;2023-04-25T08:29:25;12.10;80.40
47310;DHT22;33046;52.270;6.832;2023-04-25T08:31:33;12.20;80.10
47310;DHT22;33046;52.270;6.832;2023-04-25T08:33:42;12.20;77.90
47310;DHT22;33046;52.270;6.832;2023-04-25T08:36:12;12.30;79.90
47310;DHT22;33046;52.270;6.832;2023-04-25T08:38:20;12.30;79.50
47310;DHT22;33046;52.270;6.832;2023-04-25T08:40:27;12.40;82.10
47310;DHT22;33046;52.270;6.832;2023-04-25T08:42:41;12.40;82.10
47310;DHT22;33046;52.270;6.832;2023-04-25T08:44:48;12.40;82.80
47310;DHT22;33046;52.270;6.832;2023-04-25T08:46:56;12.20;80.90
47310;DHT22;33046;52.270;6.832;2023-04-25T08:49:08;12.40;79.30
47310;DHT22;33046;52.270;6.832;2023-04-25T08:51:21;12.30;82.90
47310;DHT22;33046;52.270;6.832;2023-04-25T08:53:32;12.50;80.20
47310;DHT22;33046;52.270;6.832;2023-04-25T08:55:41;12.60;80.30
47310;DHT22;33046;52.270;6.832;2023-04-25T08:57:49;12.60;77.20
47310;DHT22;33046;52.270;6.832;2023-04-25T08:59:58;12.70;76.90
47310;DHT22;33046;52.270;6.832;2023-04-25T09:02:05;12.60;76.20
47310;DHT22;33046;52.270;6.832;2023-04-25T09:04:12;12.70;78.20
47310;DHT22;33046;52.270;6.832;2023-04-25T09:06:19;12.60;79.20
47310;DHT22;33046;52.270;6.832;2023-04-25T09:08:28;12.50;76.10
47310;DHT22;33046;52.270;6.832;2023-04-25T09:10:38;12.60;76.20
47310;DHT22;33046;52.270;6.832;2023-04-25T09:13:02;12.60;75.70
47310;DHT22;33046;52.270;6.832;2023-04-25T09:15:12;12.60;75.20
47310;DHT22;33046;52.270;6.832;2023-04-25T09:18:00;12.60;77.40
47310;DHT22;33046;52.270;6.832;2023-04-25T09:20:13;12.70;79.00
47310;DHT22;33046;52.270;6.832;2023-04-25T09:22:21;12.50;78.70
47310;DHT22;33046;52.270;6.832;2023-04-25T09:24:35;12.50;78.10
47310;DHT22;33046;52.270;6.832;2023-04-25T09:26:43;12.50;79.60
47310;DHT22;33046;52.270;6.832;2023-04-25T09:29:04;12.50;76.70
47310;DHT22;33046;52.270;6.832;2023-04-25T09:31:12;12.60;77.00
47310;DHT22;33046;52.270;6.832;2023-04-25T09:33:28;12.60;78.70
47310;DHT22;33046;52.270;6.832;2023-04-25T09:35:36;12.60;81.90
47310;DHT22;33046;52.270;6.832;2023-04-25T09:37:45;12.70;79.40
47310;DHT22;33046;52.270;6.832;2023-04-25T09:40:22;12.60;78.50
47310;DHT22;33046;52.270;6.832;2023-04-25T09:42:41;12.70;77.10
47310;DHT22;33046;52.270;6.832;2023-04-25T09:44:48;12.70;77.60
47310;DHT22;33046;52.270;6.832;2023-04-25T09:46:55;12.70;79.70
47310;DHT22;33046;52.270;6.832;2023-04-25T09:49:07;12.30;81.00
47310;DHT22;33046;52.270;6.832;2023-04-25T09:51:25;12.00;85.90
47310;DHT22;33046;52.270;6.832;2023-04-25T09:53:33;11.90;87.90
47310;DHT22;33046;52.270;6.832;2023-04-25T09:55:53;11.50;88.90
47310;DHT22;33046;52.270;6.832;2023-04-25T09:58:06;11.30;90.00
47310;DHT22;33046;52.270;6.832;2023-04-25T10:00:16;11.30;90.90
47310;DHT22;33046;52.270;6.832;2023-04-25T10:02:24;11.40;90.80
47310;DHT22;33046;52.270;6.832;2023-04-25T10:04:35;11.40;91.00
47310;DHT22;33046;52.270;6.832;2023-04-25T10:06:57;11.50;91.30
47310;DHT22;33046;52.270;6.832;2023-04-25T10:09:04;11.50;89.00
47310;DHT22;33046;52.270;6.832;2023-04-25T10:11:13;11.70;90.60
47310;DHT22;33046;52.270;6.832;2023-04-25T10:13:23;11.60;88.10
47310;DHT22;33046;52.270;6.832;2023-04-25T10:15:30;11.60;87.00
47310;DHT22;33046;52.270;6.832;2023-04-25T10:17:37;11.50;90.50
47310;DHT22;33046;52.270;6.832;2023-04-25T10:19:44;11.60;90.00
47310;DHT22;33046;52.270;6.832;2023-04-25T10:21:54;11.70;87.70
47310;DHT22;33046;52.270;6.832;2023-04-25T10:24:02;11.60;85.90
47310;DHT22;33046;52.270;6.832;2023-04-25T10:26:10;11.60;85.50
47310;DHT22;33046;52.270;6.832;2023-04-25T10:28:16;11.70;87.40
47310;DHT22;33046;52.270;6.832;2023-04-25T10:30:25;11.70;84.80
47310;DHT22;33046;52.270;6.832;2023-04-25T10:32:32;11.80;89.30
47310;DHT22;33046;52.270;6.832;2023-04-25T10:34:40;11.80;86.90
47310;DHT22;33046;52.270;6.832;2023-04-25T10:36:50;11.90;88.30
47310;DHT22;33046;52.270;6.832;2023-04-25T10:39:03;11.90;88.20
47310;DHT22;33046;52.270;6.832;2023-04-25T10:41:12;12.00;86.20
47310;DHT22;33046;52.270;6.832;2023-04-25T10:43:43;12.00;86.50
47310;DHT22;33046;52.270;6.832;2023-04-25T10:45:52;12.20;87.50
47310;DHT22;33046;52.270;6.832;2023-04-25T10:48:00;12.30;86.10
47310;DHT22;33046;52.270;6.832;2023-04-25T10:50:08;12.40;87.20
47310;DHT22;33046;52.270;6.832;2023-04-25T10:52:24;12.50;86.70
47310;DHT22;33046;52.270;6.832;2023-04-25T10:54:31;12.60;82.30
47310;DHT22;33046;52.270;6.832;2023-04-25T10:56:40;12.60;82.60
47310;DHT22;33046;52.270;6.832;2023-04-25T10:58:48;12.70;81.80
47310;DHT22;33046;52.270;6.832;2023-04-25T11:00:57;12.70;80.30
47310;DHT22;33046;52.270;6.832;2023-04-25T11:03:03;12.90;80.30
47310;DHT22;33046;52.270;6.832;2023-04-25T11:05:12;13.00;81.10
47310;DHT22;33046;52.270;6.832;2023-04-25T11:07:29;13.10;78.50
47310;DHT22;33046;52.270;6.832;2023-04-25T11:09:39;13.00;79.60
47310;DHT22;33046;52.270;6.832;2023-04-25T11:11:53;12.80;82.30
47310;DHT22;33046;52.270;6.832;2023-04-25T11:14:00;12.70;84.40
47310;DHT22;33046;52.270;6.832;2023-04-25T11:16:08;12.60;86.30
47310;DHT22;33046;52.270;6.832;2023-04-25T11:18:17;12.60;85.20
47310;DHT22;33046;52.270;6.832;2023-04-25T11:20:25;12.60;84.20
47310;DHT22;33046;52.270;6.832;2023-04-25T11:22:33;12.70;85.30
47310;DHT22;33046;52.270;6.832;2023-04-25T11:24:41;12.80;85.00
47310;DHT22;33046;52.270;6.832;2023-04-25T11:26:49;12.80;82.80
47310;DHT22;33046;52.270;6.832;2023-04-25T11:28:59;12.80;77.60
47310;DHT22;33046;52.270;6.832;2023-04-25T11:31:07;12.80;75.70
47310;DHT22;33046;52.270;6.832;2023-04-25T11:33:14;12.80;76.90
47310;DHT22;33046;52.270;6.832;2023-04-25T11:35:21;12.80;79.40
47310;DHT22;33046;52.270;6.832;2023-04-25T11:37:28;12.70;74.10
47310;DHT22;33046;52.270;6.832;2023-04-25T11:39:35;12.80;76.90
47310;DHT22;33046;52.270;6.832;2023-04-25T11:41:42;12.90;75.90
47310;DHT22;33046;52.270;6.832;2023-04-25T11:43:49;13.00;76.70
47310;DHT22;33046;52.270;6.832;2023-04-25T11:45:55;12.90;74.00
47310;DHT22;33046;52.270;6.832;2023-04-25T11:48:04;12.90;73.00
47310;DHT22;33046;52.270;6.832;2023-04-25T11:50:11;12.90;73.80
47310;DHT22;33046;52.270;6.832;2023-04-25T11:52:18;12.90;73.30
47310;DHT22;33046;52.270;6.832;2023-04-25T11:54:24;13.00;75.30
47310;DHT22;33046;52.270;6.832;2023-04-25T11:56:31;13.00;75.50
47310;DHT22;33046;52.270;6.832;2023-04-25T11:58:57;13.00;74.20
47310;DHT22;33046;52.270;6.832;2023-04-25T12:01:04;12.90;76.40
47310;DHT22;33046;52.270;6.832;2023-04-25T12:03:12;12.60;80.30
47310;DHT22;33046;52.270;6.832;2023-04-25T12:05:19;12.20;82.50
47310;DHT22;33046;52.270;6.832;2023-04-25T12:07:36;12.30;82.80
47310;DHT22;33046;52.270;6.832;2023-04-25T12:09:43;12.10;85.30
47310;DHT22;33046;52.270;6.832;2023-04-25T12:11:53;12.10;85.00
47310;DHT22;33046;52.270;6.832;2023-04-25T12:14:03;12.20;82.40
47310;DHT22;33046;52.270;6.832;2023-04-25T12:16:10;12.20;83.90
47310;DHT22;33046;52.270;6.832;2023-04-25T12:18:20;12.20;84.40
47310;DHT22;33046;52.270;6.832;2023-04-25T12:20:27;12.20;83.60
47310;DHT22;33046;52.270;6.832;2023-04-25T12:22:34;12.40;83.60
47310;DHT22;33046;52.270;6.832;2023-04-25T12:24:44;12.40;84.50
47310;DHT22;33046;52.270;6.832;2023-04-25T12:26:53;12.40;82.70
47310;DHT22;33046;52.270;6.832;2023-04-25T12:29:00;12.60;79.50
47310;DHT22;33046;52.270;6.832;2023-04-25T12:31:07;12.70;82.90
47310;DHT22;33046;52.270;6.832;2023-04-25T12:33:14;12.70;81.40
47310;DHT22;33046;52.270;6.832;2023-04-25T12:35:22;12.70;79.40
47310;DHT22;33046;52.270;6.832;2023-04-25T12:37:28;12.70;79.20
47310;DHT22;33046;52.270;6.832;2023-04-25T12:39:35;12.70;79.00
47310;DHT22;33046;52.270;6.832;2023-04-25T12:41:42;12.60;79.40
47310;DHT22;33046;52.270;6.832;2023-04-25T12:43:49;12.70;79.20
47310;DHT22;33046;52.270;6.832;2023-04-25T12:45:56;12.70;77.20
47310;DHT22;33046;52.270;6.832;2023-04-25T12:48:03;12.80;76.10
47310;DHT22;33046;52.270;6.832;2023-04-25T12:50:10;12.80;74.90
47310;DHT22;33046;52.270;6.832;2023-04-25T12:52:18;12.90;76.00
47310;DHT22;33046;52.270;6.832;2023-04-25T12:54:25;13.00;74.40
47310;DHT22;33046;52.270;6.832;2023-04-25T12:56:32;13.10;72.80
47310;DHT22;33046;52.270;6.832;2023-04-25T12:58:39;13.00;73.50
47310;DHT22;33046;52.270;6.832;2023-04-25T13:00:46;13.00;75.40
47310;DHT22;33046;52.270;6.832;2023-04-25T13:02:53;13.00;76.90
47310;DHT22;33046;52.270;6.832;2023-04-25T13:04:59;12.90;77.50
47310;DHT22;33046;52.270;6.832;2023-04-25T13:07:06;12.90;79.30
47310;DHT22;33046;52.270;6.832;2023-04-25T13:09:14;12.90;79.40
47310;DHT22;33046;52.270;6.832;2023-04-25T13:11:21;12.90;78.30
47310;DHT22;33046;52.270;6.832;2023-04-25T13:13:28;12.90;78.30
47310;DHT22;33046;52.270;6.832;2023-04-25T13:15:35;12.90;77.90
47310;DHT22;33046;52.270;6.832;2023-04-25T13:17:42;13.00;79.60
47310;DHT22;33046;52.270;6.832;2023-04-25T13:19:48;13.00;76.50
47310;DHT22;33046;52.270;6.832;2023-04-25T13:21:55;12.90;68.00
47310;DHT22;33046;52.270;6.832;2023-04-25T13:24:02;12.90;69.10
47310;DHT22;33046;52.270;6.832;2023-04-25T13:26:11;12.90;69.50
47310;DHT22;33046;52.270;6.832;2023-04-25T13:28:17;12.90;67.70
47310;DHT22;33046;52.270;6.832;2023-04-25T13:30:24;13.00;69.20
47310;DHT22;33046;52.270;6.832;2023-04-25T13:32:31;13.00;68.70
47310;DHT22;33046;52.270;6.832;2023-04-25T13:34:38;12.90;67.90
47310;DHT22;33046;52.270;6.832;2023-04-25T13:36:44;12.90;68.90
47310;DHT22;33046;52.270;6.832;2023-04-25T13:38:51;12.90;69.70
47310;DHT22;33046;52.270;6.832;2023-04-25T13:40:58;12.80;69.90
47310;DHT22;33046;52.270;6.832;2023-04-25T13:43:06;12.90;71.20
47310;DHT22;33046;52.270;6.832;2023-04-25T13:45:13;13.00;71.40
47310;DHT22;33046;52.270;6.832;2023-04-25T13:47:20;13.10;71.50
47310;DHT22;33046;52.270;6.832;2023-04-25T13:49:26;13.10;71.80